Terminal Aerodrome Forecast
Issued by NWS

Home | Current Version | Previous Version | Text Only | Print | Product List | Glossary On
Versions: 1 2 3 4 5 6 7 8 9 10 11 12 13 14 15 16 17 18 19 20 21 22 23 24 25 26
000
FTUS45 KCYS 212342
TAFLAR
TAF
KLAR 212342Z 2200/2224 29023G34KT P6SM BKN050
      TEMPO 2200/2203 3SM -SN OVC025
     FM220300 30023KT P6SM BKN070
     FM221500 32028G42KT P6SM BKN070=

USA.gov is the U.S. government's official web portal to all federal, state and local government web resources and services.